createdAt,value
2018-07-26T00:01:04.399Z,72.44
2018-07-26T00:02:04.409Z,72.79
2018-07-26T00:03:57.874Z,72.79
2018-07-26T00:04:57.878Z,72.60
2018-07-26T00:06:53.341Z,72.79
2018-07-26T00:07:52.339Z,72.79
2018-07-26T00:09:46.817Z,73.08
2018-07-26T00:10:46.806Z,72.98
2018-07-26T00:12:41.779Z,73.47
2018-07-26T00:13:41.782Z,73.95
2018-07-26T00:15:35.743Z,73.75
2018-07-26T00:16:35.705Z,73.47
2018-07-26T00:18:29.148Z,73.75
2018-07-26T00:19:29.178Z,73.95
2018-07-26T00:21:23.615Z,74.63
2018-07-26T00:22:23.623Z,74.82
2018-07-26T00:24:18.073Z,75.60
2018-07-26T00:25:20.108Z,75.89
2018-07-26T00:27:12.070Z,75.79
2018-07-26T00:28:11.550Z,76.53
2018-07-26T00:30:06.003Z,76.04
2018-07-26T00:31:07.008Z,76.24
2018-07-26T00:33:00.498Z,76.33
2018-07-26T00:34:00.487Z,76.14
2018-07-26T00:35:54.450Z,76.72
2018-07-26T00:36:53.952Z,76.91
2018-07-26T00:38:48.407Z,77.40
2018-07-26T00:39:48.415Z,77.50
2018-07-26T00:41:42.874Z,77.59
2018-07-26T00:42:42.879Z,78.08
2018-07-26T00:44:37.320Z,77.88
2018-07-26T00:45:37.336Z,78.46
2018-07-26T00:47:33.801Z,78.27
2018-07-26T00:48:31.829Z,77.88
2018-07-26T00:50:27.286Z,78.08
2018-07-26T00:51:26.291Z,78.36
2018-07-26T00:53:20.262Z,78.56
2018-07-26T00:54:20.261Z,78.94
2018-07-26T00:56:15.726Z,78.85
2018-07-26T00:57:15.702Z,78.56
2018-07-26T00:59:10.187Z,79.33
2018-07-26T01:00:10.184Z,79.43
2018-07-26T01:02:06.148Z,79.49
2018-07-26T01:03:05.146Z,80.16
2018-07-26T01:04:59.077Z,79.97
2018-07-26T01:05:59.051Z,80.11
2018-07-26T01:07:53.555Z,80.74
2018-07-26T01:08:54.527Z,81.32
2018-07-26T01:10:49.012Z,81.32
2018-07-26T01:11:48.012Z,81.32
2018-07-26T01:13:42.967Z,81.32
2018-07-26T01:14:42.469Z,81.81
2018-07-26T01:16:36.943Z,81.71
2018-07-26T01:17:36.937Z,82.00
2018-07-26T01:19:32.399Z,81.81
2018-07-26T01:20:31.411Z,82.58
2018-07-26T01:22:25.874Z,82.87
2018-07-26T01:23:26.371Z,82.68
2018-07-26T01:25:20.860Z,83.16
2018-07-26T01:26:20.835Z,83.45
2018-07-26T01:28:15.269Z,83.55
2018-07-26T01:29:14.770Z,83.36
2018-07-26T01:31:09.230Z,83.36
2018-07-26T01:32:09.233Z,83.36
2018-07-26T01:34:03.194Z,83.84
2018-07-26T01:35:03.207Z,84.22
2018-07-26T01:36:57.183Z,85.05
2018-07-26T01:37:57.160Z,84.57
2018-07-26T01:39:51.630Z,85.35
2018-07-26T01:40:51.631Z,85.53
2018-07-26T01:42:45.073Z,85.83
2018-07-26T01:43:45.087Z,85.83
2018-07-26T01:45:42.050Z,85.93
2018-07-26T01:46:40.050Z,86.11
2018-07-26T01:48:33.979Z,86.11
2018-07-26T01:49:33.996Z,86.11
2018-07-26T01:51:28.474Z,86.11
2018-07-26T01:52:28.459Z,86.41
2018-07-26T01:54:23.429Z,86.11
2018-07-26T01:55:22.937Z,85.53
2018-07-26T01:57:18.881Z,85.73
2018-07-26T01:58:18.886Z,85.53
2018-07-26T02:00:13.880Z,86.11
2018-07-26T02:01:13.362Z,86.41
2018-07-26T02:03:08.851Z,86.69
2018-07-26T02:04:08.325Z,86.60
2018-07-26T02:06:01.272Z,86.89
2018-07-26T02:07:01.283Z,86.99
2018-07-26T02:08:55.780Z,87.37
2018-07-26T02:09:56.755Z,87.27
2018-07-26T02:11:50.710Z,87.47
2018-07-26T02:12:50.216Z,87.95
2018-07-26T02:14:44.684Z,88.05
2018-07-26T02:15:44.677Z,87.95
2018-07-26T02:17:39.146Z,88.53
2018-07-26T02:18:39.152Z,88.34
2018-07-26T02:20:33.577Z,88.92
2018-07-26T02:21:33.602Z,89.07
2018-07-26T02:23:28.077Z,89.45
2018-07-26T02:24:28.067Z,89.75
2018-07-26T02:26:24.526Z,90.71
2018-07-26T02:27:24.042Z,90.42
2018-07-26T02:29:17.521Z,91.00
2018-07-26T02:30:17.517Z,90.81
2018-07-26T02:32:10.950Z,90.91
2018-07-26T02:33:10.973Z,90.71
2018-07-26T02:35:05.393Z,91.09
2018-07-26T02:36:05.401Z,90.91
2018-07-26T02:37:59.861Z,91.77
2018-07-26T02:38:58.858Z,91.97
2018-07-26T02:40:53.846Z,92.41
2018-07-26T02:41:53.311Z,92.41
2018-07-26T02:43:47.287Z,92.74
2018-07-26T02:44:46.778Z,93.08
2018-07-26T02:46:41.209Z,93.08
2018-07-26T02:47:41.742Z,93.18
2018-07-26T02:49:35.717Z,93.08
2018-07-26T02:50:35.700Z,93.76
2018-07-26T02:52:30.129Z,93.18
2018-07-26T02:53:30.157Z,93.18
2018-07-26T02:55:24.575Z,93.27
2018-07-26T02:56:24.579Z,93.37
2018-07-26T02:58:19.977Z,93.08
2018-07-26T02:59:19.043Z,93.47
2018-07-26T03:01:12.529Z,93.66
2018-07-26T03:02:12.533Z,94.04
2018-07-26T03:04:06.983Z,94.24
2018-07-26T03:05:06.978Z,93.95
2018-07-26T03:07:00.990Z,94.04
2018-07-26T03:08:01.943Z,93.85
2018-07-26T03:09:53.891Z,94.24
2018-07-26T03:10:53.907Z,94.24
2018-07-26T03:12:47.351Z,94.43
2018-07-26T03:13:47.352Z,94.53
2018-07-26T03:15:41.783Z,94.24
2018-07-26T03:16:41.773Z,94.24
2018-07-26T03:18:37.249Z,94.53
2018-07-26T03:19:36.241Z,94.24
2018-07-26T03:21:29.711Z,94.24
2018-07-26T03:22:30.199Z,94.14
2018-07-26T03:24:23.186Z,94.82
2018-07-26T03:25:23.178Z,94.72
2018-07-26T03:27:18.157Z,94.82
2018-07-26T03:28:17.630Z,95.01
2018-07-26T03:30:13.623Z,95.50
2018-07-26T03:31:13.626Z,95.83
2018-07-26T03:33:08.588Z,95.45
2018-07-26T03:34:08.055Z,96.17
2018-07-26T03:36:02.533Z,96.12
2018-07-26T03:37:02.515Z,95.93
2018-07-26T03:38:56.970Z,95.68
2018-07-26T03:39:56.980Z,96.31
2018-07-26T03:41:50.441Z,95.88
2018-07-26T03:42:51.950Z,95.88
2018-07-26T03:44:46.397Z,95.64
2018-07-26T03:45:44.925Z,95.88
2018-07-26T03:47:39.407Z,96.17
2018-07-26T03:48:39.355Z,95.59
2018-07-26T03:50:33.360Z,96.46
2018-07-26T03:51:32.859Z,96.66
2018-07-26T03:53:28.809Z,95.88
2018-07-26T03:54:28.831Z,95.68
2018-07-26T03:56:23.302Z,96.08
2018-07-26T03:57:23.287Z,95.98
2018-07-26T03:59:18.257Z,96.08
2018-07-26T04:00:18.253Z,96.17
2018-07-26T04:02:14.720Z,96.08
2018-07-26T04:03:13.714Z,96.26
2018-07-26T04:05:08.162Z,95.98
2018-07-26T04:06:07.675Z,95.98
2018-07-26T04:08:02.602Z,96.26
2018-07-26T04:09:02.097Z,96.26
2018-07-26T04:10:55.566Z,96.46
2018-07-26T04:11:55.570Z,96.94
2018-07-26T04:13:52.510Z,96.46
2018-07-26T04:14:51.522Z,96.66
2018-07-26T04:16:46.989Z,96.46
2018-07-26T04:17:46.481Z,96.36
2018-07-26T04:19:39.973Z,96.66
2018-07-26T04:20:39.963Z,96.75
2018-07-26T04:22:37.442Z,96.75
2018-07-26T04:23:35.927Z,96.75
2018-07-26T04:25:30.370Z,96.84
2018-07-26T04:26:30.376Z,96.84
2018-07-26T04:28:25.835Z,96.84
2018-07-26T04:29:24.837Z,96.94
2018-07-26T04:31:19.315Z,96.56
2018-07-26T04:32:20.227Z,96.84
2018-07-26T04:34:14.258Z,96.94
2018-07-26T04:35:13.764Z,96.75
2018-07-26T04:37:07.742Z,96.84
2018-07-26T04:38:07.215Z,96.75
2018-07-26T04:40:01.690Z,96.56
2018-07-26T04:41:02.202Z,96.56
2018-07-26T04:42:57.706Z,96.12
2018-07-26T04:43:56.130Z,96.12
2018-07-26T04:45:51.079Z,94.96
2018-07-26T04:46:50.546Z,95.54
2018-07-26T04:48:47.033Z,94.77
2018-07-26T04:49:46.504Z,94.87
2018-07-26T04:51:39.943Z,94.96
2018-07-26T04:52:39.967Z,94.38
2018-07-26T04:54:33.421Z,94.38
2018-07-26T04:55:33.411Z,93.46
2018-07-26T04:57:29.355Z,92.54
2018-07-26T04:58:29.887Z,91.86
2018-07-26T05:00:23.820Z,90.51
2018-07-26T05:01:23.823Z,89.69
2018-07-26T05:03:18.305Z,88.33
2018-07-26T05:04:18.283Z,87.60
2018-07-26T05:06:14.755Z,86.54
2018-07-26T05:07:14.232Z,85.66
2018-07-26T05:09:09.706Z,84.11
2018-07-26T05:10:08.725Z,84.16
2018-07-26T05:12:03.670Z,83.00
2018-07-26T05:13:03.203Z,82.12
2018-07-26T05:14:58.200Z,81.35
2018-07-26T05:15:57.609Z,81.45
2018-07-26T05:17:53.077Z,80.13
2018-07-26T05:18:52.068Z,79.45
2018-07-26T05:20:50.031Z,78.58
2018-07-26T05:21:48.020Z,78.00
2018-07-26T05:23:43.004Z,77.61
2018-07-26T05:24:42.519Z,77.55
2018-07-26T05:26:37.956Z,76.87
2018-07-26T05:27:37.025Z,75.32
2018-07-26T05:29:31.434Z,74.77
2018-07-26T05:30:31.428Z,74.74
2018-07-26T05:32:25.884Z,73.52
2018-07-26T05:33:26.410Z,73.38
2018-07-26T05:35:21.878Z,72.83
2018-07-26T05:36:21.834Z,72.71
2018-07-26T05:38:17.801Z,72.74
2018-07-26T05:39:16.312Z,72.16
2018-07-26T05:41:12.288Z,71.38
2018-07-26T05:42:12.272Z,70.83
2018-07-26T05:44:08.269Z,70.64
2018-07-26T05:47:03.571Z,70.83
2018-07-26T05:48:03.582Z,70.35
2018-07-26T05:49:58.107Z,68.70
2018-07-26T05:50:58.131Z,68.60
2018-07-26T05:52:52.588Z,67.92
2018-07-26T05:53:52.586Z,67.92
2018-07-26T05:55:46.543Z,67.54
2018-07-26T05:56:46.004Z,68.08
2018-07-26T05:58:41.968Z,68.76
2018-07-26T05:59:42.496Z,67.89
2018-07-26T06:01:37.932Z,68.28
2018-07-26T06:02:37.440Z,68.18
2018-07-26T06:04:31.904Z,67.99
2018-07-26T06:05:30.907Z,67.89
2018-07-26T06:07:27.409Z,67.89
2018-07-26T06:08:26.902Z,68.08
2018-07-26T06:10:21.894Z,68.08
2018-07-26T06:11:21.370Z,68.44
2018-07-26T06:13:16.331Z,68.76
2018-07-26T06:14:16.848Z,67.99
2018-07-26T06:16:10.808Z,67.31
2018-07-26T06:17:10.322Z,67.99
2018-07-26T06:19:05.778Z,66.34
2018-07-26T06:20:04.800Z,66.53
2018-07-26T06:21:58.754Z,64.72
2018-07-26T06:22:58.254Z,64.82
2018-07-26T06:24:52.669Z,63.65
2018-07-26T06:25:53.242Z,63.65
2018-07-26T06:27:48.713Z,63.36
2018-07-26T06:28:48.663Z,63.36
2018-07-26T06:30:44.630Z,63.36
2018-07-26T06:31:45.134Z,62.59
2018-07-26T06:33:39.162Z,62.13
2018-07-26T06:34:39.112Z,61.74
2018-07-26T06:36:32.598Z,61.25
2018-07-26T06:37:32.575Z,61.19
2018-07-26T06:39:27.567Z,60.51
2018-07-26T06:40:27.032Z,60.68
2018-07-26T06:42:22.994Z,60.51
2018-07-26T06:43:22.990Z,59.92
2018-07-26T06:45:17.488Z,59.64
2018-07-26T06:46:17.429Z,58.76
2018-07-26T06:48:10.937Z,59.34
2018-07-26T06:49:10.912Z,59.15
2018-07-26T06:51:05.880Z,58.28
2018-07-26T06:52:05.387Z,57.98
2018-07-26T06:53:59.880Z,57.69
2018-07-26T06:55:00.858Z,57.62
2018-07-26T06:56:55.846Z,57.33
2018-07-26T06:57:56.754Z,57.43
2018-07-26T06:59:49.828Z,56.65
2018-07-26T07:00:49.324Z,56.36
2018-07-26T07:02:42.779Z,56.29
2018-07-26T07:03:42.780Z,55.13
2018-07-26T07:05:37.744Z,54.76
2018-07-26T07:06:37.228Z,55.25
2018-07-26T07:08:35.687Z,54.57
2018-07-26T07:09:35.180Z,54.76
2018-07-26T07:11:30.159Z,53.69
2018-07-26T07:12:29.647Z,53.52
2018-07-26T07:14:26.121Z,53.04
2018-07-26T07:15:25.627Z,53.14
2018-07-26T07:17:19.106Z,53.33
2018-07-26T07:18:19.598Z,53.14
2018-07-26T07:20:15.065Z,52.65
2018-07-26T07:21:15.051Z,52.45
2018-07-26T07:23:09.548Z,52.36
2018-07-26T07:24:09.548Z,52.45
2018-07-26T07:26:07.952Z,52.55
2018-07-26T07:27:05.519Z,52.28
2018-07-26T07:29:03.483Z,51.80
2018-07-26T07:30:01.537Z,51.61
2018-07-26T07:31:57.498Z,51.80
2018-07-26T07:32:57.510Z,51.82
2018-07-26T07:34:50.976Z,50.24
2018-07-26T07:35:50.937Z,50.26
2018-07-26T07:37:44.413Z,49.78
2018-07-26T07:38:44.404Z,49.66
2018-07-26T07:40:38.861Z,49.85
2018-07-26T07:41:38.884Z,49.76
2018-07-26T07:43:34.345Z,49.56
2018-07-26T07:44:33.349Z,49.78
2018-07-26T07:46:27.834Z,49.39
2018-07-26T07:47:27.864Z,49.00
2018-07-26T07:49:24.305Z,48.41
2018-07-26T07:50:23.813Z,47.75
2018-07-26T07:52:19.783Z,47.56
2018-07-26T07:53:19.795Z,47.27
2018-07-26T07:55:14.764Z,47.07
2018-07-26T07:56:14.776Z,46.61
2018-07-26T07:58:08.706Z,46.70
2018-07-26T07:59:09.710Z,46.61
2018-07-26T08:01:03.208Z,46.41
2018-07-26T08:02:03.700Z,46.04
2018-07-26T08:03:58.169Z,45.95
2018-07-26T08:04:57.654Z,45.95
2018-07-26T08:06:51.215Z,45.65
2018-07-26T08:07:51.146Z,44.68
2018-07-26T08:09:45.605Z,45.07
2018-07-26T08:10:45.630Z,44.78
2018-07-26T08:12:40.703Z,44.31
2018-07-26T08:13:40.111Z,43.82
2018-07-26T08:15:36.047Z,44.02
2018-07-26T08:16:36.058Z,43.73
2018-07-26T08:18:32.518Z,44.21
2018-07-26T08:19:32.011Z,43.33
2018-07-26T08:21:26.496Z,43.82
2018-07-26T08:22:27.487Z,43.82
2018-07-26T08:24:22.962Z,43.26
2018-07-26T08:25:22.467Z,43.46
2018-07-26T08:27:18.459Z,43.36
2018-07-26T08:28:18.438Z,43.55
2018-07-26T08:30:12.920Z,43.26
2018-07-26T08:31:13.411Z,43.26
2018-07-26T08:33:08.875Z,42.87
2018-07-26T08:34:07.389Z,43.36
2018-07-26T08:36:02.342Z,43.46
2018-07-26T08:37:01.842Z,43.36
2018-07-26T08:38:56.294Z,43.46
2018-07-26T08:39:56.818Z,43.48
2018-07-26T08:41:50.803Z,43.18
2018-07-26T08:42:50.796Z,43.38
2018-07-26T08:44:45.787Z,43.10
2018-07-26T08:45:46.257Z,43.01
2018-07-26T08:47:41.758Z,42.61
2018-07-26T08:48:42.278Z,42.42
2018-07-26T08:50:37.725Z,42.44
2018-07-26T08:51:37.247Z,42.25
2018-07-26T08:53:31.709Z,41.56
2018-07-26T08:54:32.705Z,41.46
2018-07-26T08:56:26.196Z,41.76
2018-07-26T08:57:26.193Z,42.05
2018-07-26T08:59:20.655Z,42.25
2018-07-26T09:00:19.652Z,42.07
2018-07-26T09:02:16.131Z,41.88
2018-07-26T09:03:15.625Z,41.39
2018-07-26T09:05:13.099Z,41.49
2018-07-26T09:06:11.579Z,41.58
2018-07-26T09:08:07.542Z,41.19
2018-07-26T09:09:07.563Z,41.29
2018-07-26T09:11:03.111Z,41.49
2018-07-26T09:12:02.025Z,41.29
2018-07-26T09:13:56.517Z,41.29
2018-07-26T09:14:57.990Z,41.00
2018-07-26T09:16:52.504Z,41.29
2018-07-26T09:17:52.459Z,41.49
2018-07-26T09:19:49.541Z,41.00
2018-07-26T09:20:48.439Z,40.70
2018-07-26T09:22:45.415Z,40.33
2018-07-26T09:23:44.418Z,39.92
2018-07-26T09:25:40.903Z,40.14
2018-07-26T09:26:40.356Z,40.14
2018-07-26T09:28:36.829Z,39.74
2018-07-26T09:29:36.333Z,39.96
2018-07-26T09:31:29.819Z,39.86
2018-07-26T09:32:30.807Z,39.56
2018-07-26T09:34:23.277Z,39.49
2018-07-26T09:35:23.821Z,38.80
2018-07-26T09:37:19.260Z,38.21
2018-07-26T09:38:20.251Z,37.84
2018-07-26T09:40:15.281Z,37.94
2018-07-26T09:41:15.301Z,38.13
2018-07-26T09:43:09.716Z,37.65
2018-07-26T09:44:10.224Z,37.45
2018-07-26T09:46:07.687Z,38.13
2018-07-26T09:47:05.717Z,38.23
2018-07-26T09:49:01.709Z,37.35
2018-07-26T09:50:02.687Z,37.07
2018-07-26T09:51:57.683Z,37.27
2018-07-26T09:52:57.694Z,36.78
2018-07-26T09:54:53.677Z,36.90
2018-07-26T09:55:54.149Z,36.40
2018-07-26T09:57:49.633Z,36.40
2018-07-26T09:58:50.604Z,35.91
2018-07-26T10:00:45.612Z,35.52
2018-07-26T10:01:45.635Z,35.82
2018-07-26T10:03:41.605Z,36.19
2018-07-26T10:04:42.595Z,36.19
2018-07-26T10:06:36.188Z,36.21
2018-07-26T10:07:36.203Z,35.02
2018-07-26T10:09:32.175Z,34.93
2018-07-26T10:10:32.188Z,34.64
2018-07-26T10:12:28.178Z,34.36
2018-07-26T10:13:29.161Z,33.97
2018-07-26T10:15:24.649Z,34.16
2018-07-26T10:16:24.650Z,34.06
2018-07-26T10:18:20.124Z,33.97
2018-07-26T10:19:20.140Z,34.26
2018-07-26T10:21:18.092Z,34.26
2018-07-26T10:22:18.094Z,34.67
2018-07-26T10:24:14.093Z,34.36
2018-07-26T10:25:14.566Z,33.58
2018-07-26T10:27:11.037Z,33.39
2018-07-26T10:28:10.070Z,33.00
2018-07-26T10:30:07.030Z,33.49
2018-07-26T10:31:06.526Z,33.20
2018-07-26T10:33:01.999Z,33.12
2018-07-26T10:34:02.025Z,33.12
2018-07-26T10:35:56.989Z,32.72
2018-07-26T10:36:57.487Z,32.74
2018-07-26T10:38:51.506Z,32.33
2018-07-26T10:39:50.995Z,32.04
2018-07-26T10:41:47.524Z,32.53
2018-07-26T10:42:46.998Z,32.45
2018-07-26T10:44:45.478Z,32.23
2018-07-26T10:45:45.965Z,32.62
2018-07-26T10:47:39.954Z,32.62
2018-07-26T10:48:38.560Z,32.43
2018-07-26T10:50:34.511Z,32.04
2018-07-26T10:51:34.536Z,32.43
2018-07-26T10:53:31.505Z,31.94
2018-07-26T10:54:30.531Z,31.92
2018-07-26T10:56:24.997Z,32.33
2018-07-26T10:57:25.026Z,32.92
2018-07-26T10:59:20.996Z,32.53
2018-07-26T11:00:21.025Z,32.72
2018-07-26T11:02:18.984Z,33.12
2018-07-26T11:03:16.993Z,32.64
2018-07-26T11:05:13.466Z,32.24
2018-07-26T11:06:12.938Z,31.66
2018-07-26T11:08:07.925Z,32.43
2018-07-26T11:09:07.420Z,32.82
2018-07-26T11:11:03.406Z,32.82
2018-07-26T11:12:03.401Z,32.15
2018-07-26T11:14:00.374Z,31.74
2018-07-26T11:14:59.491Z,30.97
2018-07-26T11:16:55.910Z,30.77
2018-07-26T11:17:56.416Z,31.16
2018-07-26T11:19:51.930Z,30.77
2018-07-26T11:20:51.423Z,31.66
2018-07-26T11:22:47.914Z,31.18
2018-07-26T11:23:47.421Z,31.09
2018-07-26T11:25:43.918Z,31.18
2018-07-26T11:26:43.373Z,31.09
2018-07-26T11:28:37.856Z,30.90
2018-07-26T11:29:36.852Z,30.60
2018-07-26T11:31:32.811Z,30.21
2018-07-26T11:33:49.793Z,30.21
2018-07-26T11:34:48.821Z,30.19
2018-07-26T11:36:43.278Z,30.21
2018-07-26T11:37:43.298Z,30.02
2018-07-26T11:39:39.289Z,29.62
2018-07-26T11:40:40.262Z,29.23
2018-07-26T11:42:33.757Z,29.62
2018-07-26T11:43:34.703Z,30.19
2018-07-26T11:45:30.263Z,30.00
2018-07-26T11:46:29.739Z,29.90
2018-07-26T11:48:25.707Z,29.41
2018-07-26T11:49:25.732Z,29.72
2018-07-26T11:51:21.717Z,29.82
2018-07-26T11:52:21.722Z,30.02
2018-07-26T11:54:18.692Z,29.62
2018-07-26T11:55:17.710Z,29.93
2018-07-26T11:57:13.651Z,28.75
2018-07-26T11:58:13.682Z,28.96
2018-07-26T12:00:11.154Z,28.48
2018-07-26T12:01:09.693Z,28.17
2018-07-26T12:03:04.170Z,28.09
2018-07-26T12:04:04.173Z,28.17
2018-07-26T12:06:01.657Z,28.37
2018-07-26T12:06:58.677Z,28.27
2018-07-26T12:08:53.164Z,28.56
2018-07-26T12:09:53.155Z,28.56
2018-07-26T12:11:47.163Z,28.26
2018-07-26T12:12:46.647Z,28.16
2018-07-26T12:14:43.628Z,28.36
2018-07-26T12:15:43.625Z,28.65
2018-07-26T12:17:39.136Z,28.45
2018-07-26T12:18:38.630Z,28.45
2018-07-26T12:20:34.620Z,28.36
2018-07-26T12:21:34.617Z,28.16
2018-07-26T12:23:30.587Z,27.58
2018-07-26T12:24:30.612Z,27.87
2018-07-26T12:26:25.111Z,27.89
2018-07-26T12:27:26.103Z,27.50
2018-07-26T12:29:20.120Z,27.00
2018-07-26T12:30:20.585Z,27.48
2018-07-26T12:32:14.149Z,27.59
2018-07-26T12:33:14.154Z,27.50
2018-07-26T12:35:08.632Z,27.10
2018-07-26T12:36:09.132Z,27.50
2018-07-26T12:38:04.077Z,27.79
2018-07-26T12:39:04.011Z,27.59
2018-07-26T12:40:58.066Z,27.00
2018-07-26T12:41:57.576Z,27.40
2018-07-26T12:43:51.059Z,27.28
2018-07-26T12:44:51.065Z,27.09
2018-07-26T12:46:45.541Z,27.68
2018-07-26T12:47:44.581Z,28.16
2018-07-26T12:49:38.530Z,28.17
2018-07-26T12:50:39.029Z,27.96
2018-07-26T12:52:34.041Z,27.96
2018-07-26T12:53:35.021Z,28.06
2018-07-26T12:55:30.576Z,28.54
2018-07-26T12:56:29.993Z,28.34
2018-07-26T12:58:25.988Z,28.14
2018-07-26T12:59:26.967Z,28.05
2018-07-26T13:01:20.457Z,28.36
2018-07-26T13:02:21.445Z,27.95
2018-07-26T13:04:20.444Z,28.26
2018-07-26T13:05:19.444Z,27.96
2018-07-26T13:07:15.143Z,28.36
2018-07-26T13:08:15.587Z,28.16
2018-07-26T13:10:11.113Z,28.37
2018-07-26T13:11:11.595Z,28.37
2018-07-26T13:13:06.585Z,27.19
2018-07-26T13:14:06.587Z,27.40
2018-07-26T13:16:02.526Z,27.10
2018-07-26T13:17:02.558Z,26.81
2018-07-26T13:18:58.521Z,26.31
2018-07-26T13:19:59.533Z,26.51
2018-07-26T13:21:54.540Z,27.10
2018-07-26T13:22:55.510Z,26.81
2018-07-26T13:24:50.554Z,26.90
2018-07-26T13:25:51.024Z,26.90
2018-07-26T13:27:46.486Z,26.31
2018-07-26T13:28:47.475Z,26.21
2018-07-26T13:30:40.975Z,26.12
2018-07-26T13:31:40.964Z,26.02
2018-07-26T13:33:35.474Z,26.13
2018-07-26T13:34:37.453Z,25.93
2018-07-26T13:36:29.940Z,25.35
2018-07-26T13:37:29.960Z,24.76
2018-07-26T13:39:23.447Z,24.56
2018-07-26T13:40:24.438Z,24.86
2018-07-26T13:42:19.422Z,24.46
2018-07-26T13:43:20.431Z,24.65
2018-07-26T13:45:13.868Z,24.96
2018-07-26T13:46:13.890Z,24.86
2018-07-26T13:48:08.352Z,24.56
2018-07-26T13:49:08.362Z,24.76
2018-07-26T13:51:04.851Z,23.77
2018-07-26T13:52:05.346Z,24.46
2018-07-26T13:54:00.316Z,24.75
2018-07-26T13:55:00.341Z,24.86
2018-07-26T13:56:55.814Z,25.05
2018-07-26T13:57:54.854Z,25.07
2018-07-26T13:59:49.341Z,24.88
2018-07-26T14:00:50.255Z,24.79
2018-07-26T14:02:46.294Z,24.97
2018-07-26T14:03:46.306Z,24.98
2018-07-26T14:05:42.800Z,23.80
2018-07-26T14:06:41.806Z,23.50
2018-07-26T14:08:35.751Z,23.60
2018-07-26T14:09:35.797Z,23.60
2018-07-26T14:11:31.252Z,23.60
2018-07-26T14:12:30.284Z,23.32
2018-07-26T14:14:26.251Z,23.61
2018-07-26T14:15:24.810Z,23.51
2018-07-26T14:17:19.246Z,23.00
2018-07-26T14:18:19.254Z,22.71
2018-07-26T14:20:13.226Z,23.00
2018-07-26T14:21:12.748Z,23.32
2018-07-26T14:23:07.247Z,23.32
2018-07-26T14:24:08.217Z,23.11
2018-07-26T14:26:00.735Z,23.30
2018-07-26T14:27:00.736Z,23.21
2018-07-26T14:28:57.709Z,23.30
2018-07-26T14:29:56.742Z,23.50
2018-07-26T14:31:53.249Z,23.71
2018-07-26T14:32:52.767Z,23.22
2018-07-26T14:34:48.709Z,23.11
2018-07-26T14:35:49.222Z,23.22
2018-07-26T14:37:40.748Z,23.13
2018-07-26T14:38:40.756Z,22.93
2018-07-26T14:40:35.238Z,22.72
2018-07-26T14:41:35.228Z,23.02
2018-07-26T14:43:30.205Z,23.22
2018-07-26T14:44:29.702Z,23.22
2018-07-26T14:46:24.690Z,23.03
2018-07-26T14:47:24.197Z,23.33
2018-07-26T14:49:18.691Z,23.13
2018-07-26T14:50:18.698Z,23.33
2018-07-26T14:52:13.190Z,23.11
2018-07-26T14:53:13.183Z,22.83
2018-07-26T14:55:07.626Z,22.93
2018-07-26T14:56:07.660Z,23.03
2018-07-26T14:58:01.139Z,23.02
2018-07-26T14:59:02.189Z,23.11
2018-07-26T15:00:58.154Z,23.02
2018-07-26T15:01:58.145Z,23.40
2018-07-26T15:03:52.613Z,23.91
2018-07-26T15:04:51.632Z,23.11
2018-07-26T15:06:46.157Z,22.62
2018-07-26T15:07:46.168Z,22.62
2018-07-26T15:09:39.630Z,22.72
2018-07-26T15:10:39.627Z,22.72
2018-07-26T15:12:34.093Z,22.61
2018-07-26T15:13:34.118Z,22.41
2018-07-26T15:15:29.587Z,22.71
2018-07-26T15:16:28.562Z,23.00
2018-07-26T15:18:23.065Z,22.22
2018-07-26T15:19:23.048Z,22.61
2018-07-26T15:21:17.531Z,22.80
2018-07-26T15:22:17.537Z,23.29
2018-07-26T15:24:12.553Z,22.50
2018-07-26T15:25:14.022Z,22.60
2018-07-26T15:27:05.498Z,22.80
2018-07-26T15:28:05.514Z,22.30
2018-07-26T15:30:00.028Z,22.80
2018-07-26T15:31:00.009Z,22.22
2018-07-26T15:32:56.071Z,21.92
2018-07-26T15:33:56.027Z,22.12
2018-07-26T15:35:52.007Z,22.31
2018-07-26T15:36:52.501Z,21.83
2018-07-26T15:38:47.935Z,22.33
2018-07-26T15:39:47.945Z,21.93
2018-07-26T15:41:42.418Z,21.93
2018-07-26T15:42:42.435Z,22.51
2018-07-26T15:44:37.957Z,22.31
2018-07-26T15:45:37.016Z,22.81
2018-07-26T15:47:31.498Z,23.60
2018-07-26T15:48:30.513Z,23.49
2018-07-26T15:50:24.991Z,23.69
2018-07-26T15:51:26.049Z,23.59
2018-07-26T15:53:21.003Z,23.49
2018-07-26T15:55:38.519Z,24.27
2018-07-26T15:56:37.025Z,24.27
2018-07-26T15:58:31.497Z,24.66
2018-07-26T15:59:31.499Z,24.65
2018-07-26T16:01:26.992Z,24.93
2018-07-26T16:02:25.005Z,25.13
2018-07-26T16:04:21.414Z,24.84
2018-07-26T16:05:20.528Z,25.12
2018-07-26T16:07:14.504Z,25.61
2018-07-26T16:08:14.008Z,25.50
2018-07-26T16:10:10.007Z,24.52
2018-07-26T16:11:09.991Z,24.41
2018-07-26T16:13:05.991Z,24.52
2018-07-26T16:14:06.010Z,24.81
2018-07-26T16:16:00.477Z,24.81
2018-07-26T16:16:59.468Z,25.10
2018-07-26T16:18:55.451Z,25.10
2018-07-26T16:19:55.460Z,24.81
2018-07-26T16:21:53.871Z,24.52
2018-07-26T16:22:48.964Z,24.30
2018-07-26T16:24:46.432Z,24.80
2018-07-26T16:25:44.964Z,24.69
2018-07-26T16:27:40.437Z,25.77
2018-07-26T16:28:39.500Z,25.77
2018-07-26T16:30:36.435Z,26.65
2018-07-26T16:31:35.457Z,26.75
2018-07-26T16:33:31.449Z,26.93
2018-07-26T16:34:31.433Z,26.95
2018-07-26T16:36:26.910Z,26.84
2018-07-26T16:37:25.917Z,26.25
2018-07-26T16:39:21.392Z,25.85
2018-07-26T16:40:20.417Z,25.17
2018-07-26T16:42:15.387Z,25.56
2018-07-26T16:43:15.886Z,25.65
2018-07-26T16:45:11.804Z,25.84
2018-07-26T16:46:10.823Z,24.96
2018-07-26T16:48:04.332Z,24.37
2018-07-26T16:49:04.329Z,24.27
2018-07-26T16:51:00.280Z,24.57
2018-07-26T16:52:01.296Z,25.55
2018-07-26T16:53:59.280Z,28.00
2018-07-26T16:54:56.286Z,29.28
2018-07-26T16:56:50.773Z,30.65
2018-07-26T16:57:51.743Z,30.94
2018-07-26T16:59:45.225Z,30.82
2018-07-26T17:00:46.228Z,31.71
2018-07-26T17:02:39.709Z,32.18
2018-07-26T17:03:39.719Z,32.38
2018-07-26T17:05:35.191Z,32.38
2018-07-26T17:06:34.689Z,32.28
2018-07-26T17:08:30.155Z,32.57
2018-07-26T17:09:30.156Z,32.48
2018-07-26T17:11:23.629Z,32.48
2018-07-26T17:12:24.659Z,32.38
2018-07-26T17:14:19.098Z,32.18
2018-07-26T17:15:18.108Z,32.66
2018-07-26T17:17:12.621Z,32.86
2018-07-26T17:18:12.584Z,32.95
2018-07-26T17:20:09.553Z,33.44
2018-07-26T17:21:08.589Z,33.64
2018-07-26T17:23:03.068Z,34.03
2018-07-26T17:24:04.072Z,33.94
2018-07-26T17:26:00.540Z,34.33
2018-07-26T17:26:59.545Z,34.42
2018-07-26T17:28:58.056Z,34.72
2018-07-26T17:29:57.209Z,34.70
2018-07-26T17:31:53.190Z,35.00
2018-07-26T17:32:54.109Z,35.00
2018-07-26T17:34:47.711Z,35.19
2018-07-26T17:35:47.732Z,35.29
2018-07-26T17:37:42.672Z,35.68
2018-07-26T17:38:43.606Z,35.68
2018-07-26T17:40:36.688Z,35.88
2018-07-26T17:41:37.591Z,36.18
2018-07-26T17:43:30.161Z,36.65
2018-07-26T17:44:30.161Z,36.86
2018-07-26T17:46:25.133Z,37.13
2018-07-26T17:47:24.653Z,37.04
2018-07-26T17:49:20.612Z,37.23
2018-07-26T17:50:20.648Z,37.13
2018-07-26T17:52:15.091Z,36.84
2018-07-26T17:53:15.129Z,37.23
2018-07-26T17:55:11.114Z,36.65
2018-07-26T17:56:11.069Z,36.94
2018-07-26T17:58:08.529Z,36.94
2018-07-26T17:59:07.045Z,38.31
2018-07-26T18:01:00.519Z,38.49
2018-07-26T18:02:00.529Z,38.59
2018-07-26T18:03:55.032Z,38.49
2018-07-26T18:04:56.019Z,38.39
2018-07-26T18:06:52.500Z,38.20
2018-07-26T18:07:50.492Z,38.29
2018-07-26T18:09:46.464Z,38.39
2018-07-26T18:10:45.490Z,38.49
2018-07-26T18:12:39.471Z,38.10
2018-07-26T18:13:38.977Z,38.29
2018-07-26T18:15:34.948Z,38.39
2018-07-26T18:16:35.438Z,38.08
2018-07-26T18:18:30.915Z,38.37
2018-07-26T18:19:30.387Z,38.47
2018-07-26T18:21:26.869Z,38.47
2018-07-26T18:22:25.374Z,38.76
2018-07-26T18:24:21.348Z,39.35
2018-07-26T18:25:20.338Z,40.23
2018-07-26T18:27:14.308Z,41.02
2018-07-26T18:28:15.324Z,41.29
2018-07-26T18:30:11.836Z,41.00
2018-07-26T18:31:10.325Z,41.09
2018-07-26T18:33:06.335Z,41.39
2018-07-26T18:34:07.315Z,41.09
2018-07-26T18:36:00.289Z,41.78
2018-07-26T18:36:59.789Z,41.78
2018-07-26T18:38:55.765Z,41.49
2018-07-26T18:39:55.768Z,41.97
2018-07-26T18:41:50.235Z,41.86
2018-07-26T18:42:50.245Z,42.25
2018-07-26T18:44:46.245Z,42.44
2018-07-26T18:45:46.247Z,42.44
2018-07-26T18:47:40.736Z,42.93
2018-07-26T18:48:40.728Z,42.64